sensor_id;sensor_type;location;lat;lon;timestamp;P1;durP1;ratioP1;P2;durP2;ratioP2
5650;SDS011;40241;52.684;9.758;2023-03-14T00:01:12;4.60;;;1.10;;
5650;SDS011;40241;52.684;9.758;2023-03-14T00:03:40;2.10;;;0.73;;
5650;SDS011;40241;52.684;9.758;2023-03-14T00:06:05;1.27;;;0.90;;
5650;SDS011;40241;52.684;9.758;2023-03-14T00:08:32;1.43;;;1.10;;
5650;SDS011;40241;52.684;9.758;2023-03-14T00:11:03;0.67;;;0.67;;
5650;SDS011;40241;52.684;9.758;2023-03-14T00:13:39;1.20;;;1.03;;
5650;SDS011;40241;52.684;9.758;2023-03-14T00:16:05;2.30;;;0.80;;
5650;SDS011;40241;52.684;9.758;2023-03-14T00:18:33;1.07;;;0.97;;
5650;SDS011;40241;52.684;9.758;2023-03-14T00:20:59;1.87;;;1.17;;
5650;SDS011;40241;52.684;9.758;2023-03-14T00:23:26;1.23;;;1.10;;
5650;SDS011;40241;52.684;9.758;2023-03-14T00:25:53;1.20;;;1.00;;
5650;SDS011;40241;52.684;9.758;2023-03-14T00:28:18;1.10;;;0.90;;
5650;SDS011;40241;52.684;9.758;2023-03-14T00:30:44;1.67;;;1.13;;
5650;SDS011;40241;52.684;9.758;2023-03-14T00:33:09;3.13;;;0.90;;
5650;SDS011;40241;52.684;9.758;2023-03-14T00:35:34;5.47;;;1.00;;
5650;SDS011;40241;52.684;9.758;2023-03-14T00:38:00;0.93;;;0.93;;
5650;SDS011;40241;52.684;9.758;2023-03-14T00:40:25;1.83;;;0.97;;
5650;SDS011;40241;52.684;9.758;2023-03-14T00:42:50;1.97;;;0.93;;
5650;SDS011;40241;52.684;9.758;2023-03-14T00:45:16;1.13;;;0.90;;
5650;SDS011;40241;52.684;9.758;2023-03-14T00:47:41;1.27;;;0.90;;
5650;SDS011;40241;52.684;9.758;2023-03-14T00:50:10;1.87;;;0.67;;
5650;SDS011;40241;52.684;9.758;2023-03-14T00:52:36;1.37;;;0.90;;
5650;SDS011;40241;52.684;9.758;2023-03-14T00:55:01;1.47;;;0.87;;
5650;SDS011;40241;52.684;9.758;2023-03-14T00:57:27;1.60;;;1.13;;
5650;SDS011;40241;52.684;9.758;2023-03-14T00:59:52;3.87;;;0.80;;
5650;SDS011;40241;52.684;9.758;2023-03-14T01:02:18;1.37;;;1.10;;
5650;SDS011;40241;52.684;9.758;2023-03-14T01:04:43;0.70;;;0.70;;
5650;SDS011;40241;52.684;9.758;2023-03-14T01:07:08;2.60;;;0.77;;
5650;SDS011;40241;52.684;9.758;2023-03-14T01:09:33;2.73;;;0.80;;
5650;SDS011;40241;52.684;9.758;2023-03-14T01:11:59;1.47;;;0.77;;
5650;SDS011;40241;52.684;9.758;2023-03-14T01:14:24;1.60;;;0.80;;
5650;SDS011;40241;52.684;9.758;2023-03-14T01:16:50;3.20;;;1.00;;
5650;SDS011;40241;52.684;9.758;2023-03-14T01:19:15;1.20;;;0.80;;
5650;SDS011;40241;52.684;9.758;2023-03-14T01:21:40;2.03;;;0.80;;
5650;SDS011;40241;52.684;9.758;2023-03-14T01:24:06;1.20;;;0.83;;
5650;SDS011;40241;52.684;9.758;2023-03-14T01:26:32;3.17;;;0.97;;
5650;SDS011;40241;52.684;9.758;2023-03-14T01:28:59;5.87;;;1.03;;
5650;SDS011;40241;52.684;9.758;2023-03-14T01:31:25;1.93;;;1.33;;
5650;SDS011;40241;52.684;9.758;2023-03-14T01:33:51;1.37;;;0.90;;
5650;SDS011;40241;52.684;9.758;2023-03-14T01:36:17;2.53;;;1.30;;
5650;SDS011;40241;52.684;9.758;2023-03-14T01:38:42;1.50;;;1.20;;
5650;SDS011;40241;52.684;9.758;2023-03-14T01:41:11;1.20;;;0.60;;
5650;SDS011;40241;52.684;9.758;2023-03-14T01:43:39;1.43;;;0.83;;
5650;SDS011;40241;52.684;9.758;2023-03-14T01:51:36;5.23;;;0.80;;
5650;SDS011;40241;52.684;9.758;2023-03-14T01:54:25;2.20;;;0.70;;
5650;SDS011;40241;52.684;9.758;2023-03-14T01:57:12;3.80;;;0.70;;
5650;SDS011;40241;52.684;9.758;2023-03-14T02:00:07;1.37;;;0.80;;
5650;SDS011;40241;52.684;9.758;2023-03-14T02:02:40;3.90;;;1.23;;
5650;SDS011;40241;52.684;9.758;2023-03-14T02:05:08;5.13;;;0.80;;
5650;SDS011;40241;52.684;9.758;2023-03-14T02:10:14;1.70;;;1.07;;
5650;SDS011;40241;52.684;9.758;2023-03-14T02:12:43;1.80;;;0.70;;
5650;SDS011;40241;52.684;9.758;2023-03-14T02:15:10;1.53;;;0.70;;
5650;SDS011;40241;52.684;9.758;2023-03-14T02:17:35;1.50;;;0.90;;
5650;SDS011;40241;52.684;9.758;2023-03-14T02:22:34;2.20;;;0.70;;
5650;SDS011;40241;52.684;9.758;2023-03-14T02:27:33;2.40;;;0.80;;
5650;SDS011;40241;52.684;9.758;2023-03-14T02:30:00;1.43;;;0.60;;
5650;SDS011;40241;52.684;9.758;2023-03-14T02:32:30;2.10;;;0.87;;
5650;SDS011;40241;52.684;9.758;2023-03-14T02:34:59;0.80;;;0.67;;
5650;SDS011;40241;52.684;9.758;2023-03-14T02:37:35;1.13;;;1.03;;
5650;SDS011;40241;52.684;9.758;2023-03-14T02:40:06;1.17;;;0.77;;
5650;SDS011;40241;52.684;9.758;2023-03-14T02:42:32;0.87;;;0.70;;
5650;SDS011;40241;52.684;9.758;2023-03-14T02:45:25;2.43;;;0.90;;
5650;SDS011;40241;52.684;9.758;2023-03-14T02:47:44;1.63;;;0.97;;
5650;SDS011;40241;52.684;9.758;2023-03-14T02:50:13;1.20;;;0.80;;
5650;SDS011;40241;52.684;9.758;2023-03-14T02:52:42;2.60;;;0.83;;
5650;SDS011;40241;52.684;9.758;2023-03-14T02:55:07;2.57;;;0.90;;
5650;SDS011;40241;52.684;9.758;2023-03-14T02:57:33;3.33;;;0.63;;
5650;SDS011;40241;52.684;9.758;2023-03-14T02:59:59;3.00;;;1.10;;
5650;SDS011;40241;52.684;9.758;2023-03-14T03:02:25;1.43;;;0.73;;
5650;SDS011;40241;52.684;9.758;2023-03-14T03:04:51;2.40;;;1.07;;
5650;SDS011;40241;52.684;9.758;2023-03-14T03:07:17;5.07;;;0.87;;
5650;SDS011;40241;52.684;9.758;2023-03-14T03:09:42;1.27;;;0.90;;
5650;SDS011;40241;52.684;9.758;2023-03-14T03:12:08;1.50;;;0.80;;
5650;SDS011;40241;52.684;9.758;2023-03-14T03:14:33;1.03;;;0.70;;
5650;SDS011;40241;52.684;9.758;2023-03-14T03:16:58;1.20;;;1.10;;
5650;SDS011;40241;52.684;9.758;2023-03-14T03:19:24;1.40;;;0.80;;
5650;SDS011;40241;52.684;9.758;2023-03-14T03:21:49;1.67;;;0.77;;
5650;SDS011;40241;52.684;9.758;2023-03-14T03:24:14;3.63;;;1.00;;
5650;SDS011;40241;52.684;9.758;2023-03-14T03:26:40;2.47;;;0.63;;
5650;SDS011;40241;52.684;9.758;2023-03-14T03:29:05;2.20;;;1.40;;
5650;SDS011;40241;52.684;9.758;2023-03-14T03:31:30;2.47;;;0.77;;
5650;SDS011;40241;52.684;9.758;2023-03-14T03:33:56;1.80;;;0.87;;
5650;SDS011;40241;52.684;9.758;2023-03-14T03:36:25;2.80;;;0.90;;
5650;SDS011;40241;52.684;9.758;2023-03-14T03:38:51;0.83;;;0.60;;
5650;SDS011;40241;52.684;9.758;2023-03-14T03:41:17;0.97;;;0.50;;
5650;SDS011;40241;52.684;9.758;2023-03-14T03:43:42;2.20;;;1.00;;
5650;SDS011;40241;52.684;9.758;2023-03-14T03:46:08;5.30;;;1.27;;
5650;SDS011;40241;52.684;9.758;2023-03-14T03:48:34;1.83;;;0.70;;
5650;SDS011;40241;52.684;9.758;2023-03-14T03:51:00;5.00;;;1.13;;
5650;SDS011;40241;52.684;9.758;2023-03-14T03:53:26;0.60;;;0.60;;
5650;SDS011;40241;52.684;9.758;2023-03-14T03:55:51;0.60;;;0.60;;
5650;SDS011;40241;52.684;9.758;2023-03-14T03:58:17;2.10;;;0.90;;
5650;SDS011;40241;52.684;9.758;2023-03-14T04:00:42;2.87;;;0.73;;
5650;SDS011;40241;52.684;9.758;2023-03-14T04:03:08;0.90;;;0.70;;
5650;SDS011;40241;52.684;9.758;2023-03-14T04:05:33;2.10;;;0.77;;
5650;SDS011;40241;52.684;9.758;2023-03-14T04:07:59;2.93;;;0.50;;
5650;SDS011;40241;52.684;9.758;2023-03-14T04:10:25;1.67;;;0.60;;
5650;SDS011;40241;52.684;9.758;2023-03-14T04:12:51;4.30;;;0.50;;
5650;SDS011;40241;52.684;9.758;2023-03-14T04:15:17;1.10;;;0.70;;
5650;SDS011;40241;52.684;9.758;2023-03-14T04:17:42;1.47;;;0.60;;
5650;SDS011;40241;52.684;9.758;2023-03-14T04:20:08;1.17;;;0.60;;
5650;SDS011;40241;52.684;9.758;2023-03-14T04:22:37;2.53;;;0.70;;
5650;SDS011;40241;52.684;9.758;2023-03-14T04:25:04;0.93;;;0.40;;
5650;SDS011;40241;52.684;9.758;2023-03-14T04:27:30;0.70;;;0.70;;
5650;SDS011;40241;52.684;9.758;2023-03-14T04:29:56;0.90;;;0.60;;
5650;SDS011;40241;52.684;9.758;2023-03-14T04:32:21;0.83;;;0.40;;
5650;SDS011;40241;52.684;9.758;2023-03-14T04:34:47;1.80;;;0.50;;
5650;SDS011;40241;52.684;9.758;2023-03-14T04:37:12;0.80;;;0.60;;
5650;SDS011;40241;52.684;9.758;2023-03-14T04:39:38;1.67;;;0.40;;
5650;SDS011;40241;52.684;9.758;2023-03-14T04:42:03;1.43;;;0.50;;
5650;SDS011;40241;52.684;9.758;2023-03-14T04:44:29;1.00;;;0.40;;
5650;SDS011;40241;52.684;9.758;2023-03-14T04:46:54;1.13;;;0.40;;
5650;SDS011;40241;52.684;9.758;2023-03-14T04:49:19;0.90;;;0.30;;
5650;SDS011;40241;52.684;9.758;2023-03-14T04:51:45;1.20;;;0.50;;
5650;SDS011;40241;52.684;9.758;2023-03-14T04:54:10;0.60;;;0.57;;
5650;SDS011;40241;52.684;9.758;2023-03-14T04:56:36;0.67;;;0.40;;
5650;SDS011;40241;52.684;9.758;2023-03-14T04:59:02;0.50;;;0.40;;
5650;SDS011;40241;52.684;9.758;2023-03-14T05:01:27;2.47;;;0.70;;
5650;SDS011;40241;52.684;9.758;2023-03-14T05:03:53;1.17;;;0.60;;
5650;SDS011;40241;52.684;9.758;2023-03-14T05:06:18;2.20;;;0.50;;
5650;SDS011;40241;52.684;9.758;2023-03-14T05:08:43;1.83;;;0.40;;
5650;SDS011;40241;52.684;9.758;2023-03-14T05:11:10;1.77;;;0.50;;
5650;SDS011;40241;52.684;9.758;2023-03-14T05:13:36;1.43;;;0.50;;
5650;SDS011;40241;52.684;9.758;2023-03-14T05:16:07;0.70;;;0.40;;
5650;SDS011;40241;52.684;9.758;2023-03-14T05:18:34;0.93;;;0.50;;
5650;SDS011;40241;52.684;9.758;2023-03-14T05:21:00;0.50;;;0.40;;
5650;SDS011;40241;52.684;9.758;2023-03-14T05:23:25;1.53;;;0.50;;
5650;SDS011;40241;52.684;9.758;2023-03-14T05:25:51;1.60;;;0.50;;
5650;SDS011;40241;52.684;9.758;2023-03-14T05:28:16;0.60;;;0.40;;
5650;SDS011;40241;52.684;9.758;2023-03-14T05:30:42;0.50;;;0.40;;
5650;SDS011;40241;52.684;9.758;2023-03-14T05:33:07;1.20;;;0.43;;
5650;SDS011;40241;52.684;9.758;2023-03-14T05:35:32;0.90;;;0.40;;
5650;SDS011;40241;52.684;9.758;2023-03-14T05:37:58;0.70;;;0.50;;
5650;SDS011;40241;52.684;9.758;2023-03-14T05:40:23;0.60;;;0.33;;
5650;SDS011;40241;52.684;9.758;2023-03-14T05:42:49;1.03;;;0.57;;
5650;SDS011;40241;52.684;9.758;2023-03-14T05:45:14;0.60;;;0.40;;
5650;SDS011;40241;52.684;9.758;2023-03-14T05:47:39;2.60;;;0.60;;
5650;SDS011;40241;52.684;9.758;2023-03-14T05:50:05;0.87;;;0.50;;
5650;SDS011;40241;52.684;9.758;2023-03-14T05:52:31;1.20;;;0.40;;
5650;SDS011;40241;52.684;9.758;2023-03-14T05:54:57;3.20;;;0.60;;
5650;SDS011;40241;52.684;9.758;2023-03-14T05:57:22;0.63;;;0.40;;
5650;SDS011;40241;52.684;9.758;2023-03-14T05:59:47;0.73;;;0.50;;
5650;SDS011;40241;52.684;9.758;2023-03-14T06:02:13;3.50;;;0.60;;
5650;SDS011;40241;52.684;9.758;2023-03-14T06:04:38;2.40;;;0.80;;
5650;SDS011;40241;52.684;9.758;2023-03-14T06:07:03;1.27;;;0.60;;
5650;SDS011;40241;52.684;9.758;2023-03-14T06:09:29;0.80;;;0.80;;
5650;SDS011;40241;52.684;9.758;2023-03-14T06:11:54;1.80;;;1.00;;
5650;SDS011;40241;52.684;9.758;2023-03-14T06:14:19;5.70;;;0.60;;
5650;SDS011;40241;52.684;9.758;2023-03-14T06:16:45;1.23;;;0.60;;
5650;SDS011;40241;52.684;9.758;2023-03-14T06:19:10;0.90;;;0.80;;
5650;SDS011;40241;52.684;9.758;2023-03-14T06:21:36;3.90;;;1.27;;
5650;SDS011;40241;52.684;9.758;2023-03-14T06:24:02;2.70;;;0.70;;
5650;SDS011;40241;52.684;9.758;2023-03-14T06:26:28;1.80;;;0.70;;
5650;SDS011;40241;52.684;9.758;2023-03-14T06:28:53;1.03;;;0.90;;
5650;SDS011;40241;52.684;9.758;2023-03-14T06:31:19;1.30;;;0.80;;
5650;SDS011;40241;52.684;9.758;2023-03-14T06:33:44;1.20;;;0.60;;
5650;SDS011;40241;52.684;9.758;2023-03-14T06:36:10;1.27;;;1.00;;
5650;SDS011;40241;52.684;9.758;2023-03-14T06:38:35;1.83;;;0.80;;
5650;SDS011;40241;52.684;9.758;2023-03-14T06:41:04;1.57;;;0.60;;
5650;SDS011;40241;52.684;9.758;2023-03-14T06:43:30;2.40;;;0.80;;
5650;SDS011;40241;52.684;9.758;2023-03-14T06:45:56;2.93;;;0.93;;
5650;SDS011;40241;52.684;9.758;2023-03-14T06:48:21;4.43;;;1.33;;
5650;SDS011;40241;52.684;9.758;2023-03-14T06:50:47;1.83;;;0.83;;
5650;SDS011;40241;52.684;9.758;2023-03-14T06:53:13;2.33;;;1.03;;
5650;SDS011;40241;52.684;9.758;2023-03-14T06:55:38;2.80;;;1.20;;
5650;SDS011;40241;52.684;9.758;2023-03-14T06:58:03;2.90;;;0.90;;
5650;SDS011;40241;52.684;9.758;2023-03-14T07:00:29;0.70;;;0.60;;
5650;SDS011;40241;52.684;9.758;2023-03-14T07:02:55;1.47;;;0.73;;
5650;SDS011;40241;52.684;9.758;2023-03-14T07:05:20;1.00;;;0.63;;
5650;SDS011;40241;52.684;9.758;2023-03-14T07:07:45;1.33;;;0.97;;
5650;SDS011;40241;52.684;9.758;2023-03-14T07:10:11;1.73;;;0.73;;
5650;SDS011;40241;52.684;9.758;2023-03-14T07:12:36;2.20;;;1.13;;
5650;SDS011;40241;52.684;9.758;2023-03-14T07:15:02;2.20;;;0.70;;
5650;SDS011;40241;52.684;9.758;2023-03-14T07:17:27;3.70;;;0.90;;
5650;SDS011;40241;52.684;9.758;2023-03-14T07:19:52;2.13;;;0.70;;
5650;SDS011;40241;52.684;9.758;2023-03-14T07:22:18;6.30;;;1.00;;
5650;SDS011;40241;52.684;9.758;2023-03-14T07:24:43;1.70;;;0.47;;
5650;SDS011;40241;52.684;9.758;2023-03-14T07:27:08;0.77;;;0.47;;
5650;SDS011;40241;52.684;9.758;2023-03-14T07:29:34;0.67;;;0.50;;
5650;SDS011;40241;52.684;9.758;2023-03-14T07:31:59;0.70;;;0.50;;
5650;SDS011;40241;52.684;9.758;2023-03-14T07:34:24;2.47;;;0.60;;
5650;SDS011;40241;52.684;9.758;2023-03-14T07:36:50;3.83;;;0.50;;
5650;SDS011;40241;52.684;9.758;2023-03-14T07:39:15;1.10;;;0.70;;
5650;SDS011;40241;52.684;9.758;2023-03-14T07:41:40;0.60;;;0.40;;
5650;SDS011;40241;52.684;9.758;2023-03-14T07:44:06;1.83;;;0.43;;
5650;SDS011;40241;52.684;9.758;2023-03-14T07:46:31;3.63;;;0.63;;
5650;SDS011;40241;52.684;9.758;2023-03-14T07:48:57;0.90;;;0.50;;
5650;SDS011;40241;52.684;9.758;2023-03-14T07:51:22;5.03;;;0.60;;
5650;SDS011;40241;52.684;9.758;2023-03-14T07:53:47;1.10;;;0.50;;
5650;SDS011;40241;52.684;9.758;2023-03-14T07:56:13;1.27;;;0.40;;
5650;SDS011;40241;52.684;9.758;2023-03-14T07:58:38;0.90;;;0.47;;
5650;SDS011;40241;52.684;9.758;2023-03-14T08:01:03;1.17;;;0.47;;
5650;SDS011;40241;52.684;9.758;2023-03-14T08:03:29;1.17;;;0.40;;
5650;SDS011;40241;52.684;9.758;2023-03-14T08:05:54;1.43;;;0.50;;
5650;SDS011;40241;52.684;9.758;2023-03-14T08:08:19;1.40;;;0.40;;
5650;SDS011;40241;52.684;9.758;2023-03-14T08:10:45;0.90;;;0.50;;
5650;SDS011;40241;52.684;9.758;2023-03-14T08:13:11;0.50;;;0.37;;
5650;SDS011;40241;52.684;9.758;2023-03-14T08:15:37;0.80;;;0.40;;
5650;SDS011;40241;52.684;9.758;2023-03-14T08:18:03;0.50;;;0.30;;
5650;SDS011;40241;52.684;9.758;2023-03-14T08:20:29;0.90;;;0.40;;
5650;SDS011;40241;52.684;9.758;2023-03-14T08:22:58;0.97;;;0.30;;
5650;SDS011;40241;52.684;9.758;2023-03-14T08:25:25;0.87;;;0.43;;
5650;SDS011;40241;52.684;9.758;2023-03-14T08:27:51;0.60;;;0.33;;
5650;SDS011;40241;52.684;9.758;2023-03-14T08:30:18;1.50;;;0.40;;
5650;SDS011;40241;52.684;9.758;2023-03-14T08:32:44;0.73;;;0.40;;
5650;SDS011;40241;52.684;9.758;2023-03-14T08:35:10;1.00;;;0.40;;
5650;SDS011;40241;52.684;9.758;2023-03-14T08:37:36;0.60;;;0.47;;
5650;SDS011;40241;52.684;9.758;2023-03-14T08:40:02;2.63;;;0.47;;
5650;SDS011;40241;52.684;9.758;2023-03-14T08:42:32;1.73;;;0.60;;
5650;SDS011;40241;52.684;9.758;2023-03-14T08:44:58;1.90;;;0.30;;
5650;SDS011;40241;52.684;9.758;2023-03-14T08:47:23;0.80;;;0.40;;
5650;SDS011;40241;52.684;9.758;2023-03-14T08:49:49;0.40;;;0.30;;
5650;SDS011;40241;52.684;9.758;2023-03-14T08:52:14;0.50;;;0.30;;
5650;SDS011;40241;52.684;9.758;2023-03-14T08:54:41;0.60;;;0.30;;
5650;SDS011;40241;52.684;9.758;2023-03-14T08:57:08;0.50;;;0.30;;
5650;SDS011;40241;52.684;9.758;2023-03-14T08:59:33;0.90;;;0.50;;
5650;SDS011;40241;52.684;9.758;2023-03-14T09:01:59;0.50;;;0.40;;
5650;SDS011;40241;52.684;9.758;2023-03-14T09:04:24;0.47;;;0.33;;
5650;SDS011;40241;52.684;9.758;2023-03-14T09:06:49;1.73;;;0.50;;
5650;SDS011;40241;52.684;9.758;2023-03-14T09:09:15;0.50;;;0.40;;
5650;SDS011;40241;52.684;9.758;2023-03-14T09:11:40;1.63;;;0.47;;
5650;SDS011;40241;52.684;9.758;2023-03-14T09:14:06;0.50;;;0.30;;
5650;SDS011;40241;52.684;9.758;2023-03-14T09:16:33;0.60;;;0.40;;
5650;SDS011;40241;52.684;9.758;2023-03-14T09:18:58;0.50;;;0.30;;
5650;SDS011;40241;52.684;9.758;2023-03-14T09:21:25;0.80;;;0.30;;
5650;SDS011;40241;52.684;9.758;2023-03-14T09:23:50;1.10;;;0.30;;
5650;SDS011;40241;52.684;9.758;2023-03-14T09:26:16;0.50;;;0.30;;
5650;SDS011;40241;52.684;9.758;2023-03-14T09:28:41;0.40;;;0.30;;
5650;SDS011;40241;52.684;9.758;2023-03-14T09:31:07;2.97;;;0.60;;
5650;SDS011;40241;52.684;9.758;2023-03-14T09:33:34;1.53;;;0.60;;
5650;SDS011;40241;52.684;9.758;2023-03-14T09:36:00;0.70;;;0.40;;
5650;SDS011;40241;52.684;9.758;2023-03-14T09:38:26;1.10;;;0.47;;
5650;SDS011;40241;52.684;9.758;2023-03-14T09:40:51;0.50;;;0.40;;
5650;SDS011;40241;52.684;9.758;2023-03-14T09:43:18;1.53;;;0.93;;
5650;SDS011;40241;52.684;9.758;2023-03-14T09:45:46;1.10;;;0.50;;
5650;SDS011;40241;52.684;9.758;2023-03-14T09:48:19;0.80;;;0.60;;
5650;SDS011;40241;52.684;9.758;2023-03-14T09:50:48;0.50;;;0.50;;
5650;SDS011;40241;52.684;9.758;2023-03-14T09:53:19;0.60;;;0.40;;
5650;SDS011;40241;52.684;9.758;2023-03-14T09:55:47;0.63;;;0.60;;
5650;SDS011;40241;52.684;9.758;2023-03-14T09:58:19;1.00;;;0.60;;
5650;SDS011;40241;52.684;9.758;2023-03-14T10:00:45;2.50;;;0.47;;
5650;SDS011;40241;52.684;9.758;2023-03-14T10:05:37;0.50;;;0.50;;
5650;SDS011;40241;52.684;9.758;2023-03-14T10:08:03;0.80;;;0.50;;
5650;SDS011;40241;52.684;9.758;2023-03-14T10:10:29;2.33;;;0.60;;
5650;SDS011;40241;52.684;9.758;2023-03-14T10:12:56;1.40;;;0.53;;
5650;SDS011;40241;52.684;9.758;2023-03-14T10:15:25;1.70;;;0.50;;
5650;SDS011;40241;52.684;9.758;2023-03-14T10:18:00;0.60;;;0.57;;
5650;SDS011;40241;52.684;9.758;2023-03-14T10:20:37;0.60;;;0.60;;
5650;SDS011;40241;52.684;9.758;2023-03-14T10:25:39;0.70;;;0.70;;
5650;SDS011;40241;52.684;9.758;2023-03-14T10:28:28;0.70;;;0.60;;
5650;SDS011;40241;52.684;9.758;2023-03-14T10:30:56;0.60;;;0.60;;
5650;SDS011;40241;52.684;9.758;2023-03-14T10:36:32;0.60;;;0.60;;
5650;SDS011;40241;52.684;9.758;2023-03-14T10:38:41;0.97;;;0.73;;
5650;SDS011;40241;52.684;9.758;2023-03-14T10:41:25;0.90;;;0.80;;
5650;SDS011;40241;52.684;9.758;2023-03-14T10:43:56;0.67;;;0.67;;
5650;SDS011;40241;52.684;9.758;2023-03-14T10:46:23;0.80;;;0.80;;
5650;SDS011;40241;52.684;9.758;2023-03-14T10:48:50;0.77;;;0.70;;
5650;SDS011;40241;52.684;9.758;2023-03-14T10:56:12;0.77;;;0.77;;
5650;SDS011;40241;52.684;9.758;2023-03-14T10:58:43;1.07;;;0.70;;
5650;SDS011;40241;52.684;9.758;2023-03-14T11:03:56;0.73;;;0.40;;
5650;SDS011;40241;52.684;9.758;2023-03-14T11:06:33;0.77;;;0.40;;
5650;SDS011;40241;52.684;9.758;2023-03-14T11:09:21;0.40;;;0.30;;
5650;SDS011;40241;52.684;9.758;2023-03-14T11:11:54;1.00;;;0.30;;
5650;SDS011;40241;52.684;9.758;2023-03-14T11:14:31;0.80;;;0.40;;
5650;SDS011;40241;52.684;9.758;2023-03-14T11:22:14;2.00;;;0.40;;
5650;SDS011;40241;52.684;9.758;2023-03-14T11:24:58;0.97;;;0.30;;
5650;SDS011;40241;52.684;9.758;2023-03-14T11:27:42;0.50;;;0.40;;
5650;SDS011;40241;52.684;9.758;2023-03-14T11:33:13;1.23;;;0.50;;
5650;SDS011;40241;52.684;9.758;2023-03-14T11:41:02;0.90;;;0.40;;
5650;SDS011;40241;52.684;9.758;2023-03-14T11:43:34;1.47;;;0.40;;
5650;SDS011;40241;52.684;9.758;2023-03-14T11:51:50;1.70;;;0.40;;
5650;SDS011;40241;52.684;9.758;2023-03-14T11:57:12;0.50;;;0.30;;
5650;SDS011;40241;52.684;9.758;2023-03-14T12:07:39;0.50;;;0.30;;
5650;SDS011;40241;52.684;9.758;2023-03-14T12:10:27;0.50;;;0.30;;
5650;SDS011;40241;52.684;9.758;2023-03-14T12:12:53;0.40;;;0.30;;
5650;SDS011;40241;52.684;9.758;2023-03-14T12:15:19;0.50;;;0.30;;
5650;SDS011;40241;52.684;9.758;2023-03-14T12:17:46;0.50;;;0.30;;
5650;SDS011;40241;52.684;9.758;2023-03-14T12:20:18;0.40;;;0.30;;
5650;SDS011;40241;52.684;9.758;2023-03-14T12:25:27;0.50;;;0.40;;
5650;SDS011;40241;52.684;9.758;2023-03-14T12:30:25;2.70;;;0.40;;
5650;SDS011;40241;52.684;9.758;2023-03-14T12:33:10;6.37;;;0.90;;
5650;SDS011;40241;52.684;9.758;2023-03-14T12:35:45;2.27;;;1.63;;
5650;SDS011;40241;52.684;9.758;2023-03-14T12:43:31;4.10;;;0.90;;
5650;SDS011;40241;52.684;9.758;2023-03-14T12:48:46;1.53;;;0.50;;
5650;SDS011;40241;52.684;9.758;2023-03-14T12:51:15;4.33;;;0.53;;
5650;SDS011;40241;52.684;9.758;2023-03-14T12:54:05;3.40;;;0.40;;
5650;SDS011;40241;52.684;9.758;2023-03-14T13:01:55;0.50;;;0.40;;
5650;SDS011;40241;52.684;9.758;2023-03-14T13:04:42;4.07;;;0.73;;
5650;SDS011;40241;52.684;9.758;2023-03-14T13:07:30;3.17;;;0.57;;
5650;SDS011;40241;52.684;9.758;2023-03-14T13:15:40;4.10;;;0.80;;
5650;SDS011;40241;52.684;9.758;2023-03-14T13:18:11;1.03;;;0.70;;
5650;SDS011;40241;52.684;9.758;2023-03-14T13:21:40;3.30;;;1.10;;
5650;SDS011;40241;52.684;9.758;2023-03-14T13:23:40;0.93;;;0.80;;
5650;SDS011;40241;52.684;9.758;2023-03-14T13:26:09;2.33;;;1.10;;
5650;SDS011;40241;52.684;9.758;2023-03-14T13:28:38;5.83;;;0.70;;
5650;SDS011;40241;52.684;9.758;2023-03-14T13:31:04;2.73;;;0.70;;
5650;SDS011;40241;52.684;9.758;2023-03-14T13:33:31;1.97;;;0.50;;
5650;SDS011;40241;52.684;9.758;2023-03-14T13:36:02;5.67;;;0.70;;
5650;SDS011;40241;52.684;9.758;2023-03-14T13:38:30;1.73;;;0.70;;
5650;SDS011;40241;52.684;9.758;2023-03-14T13:40:58;1.30;;;0.70;;
5650;SDS011;40241;52.684;9.758;2023-03-14T13:43:29;5.90;;;0.87;;
5650;SDS011;40241;52.684;9.758;2023-03-14T13:46:01;6.50;;;1.13;;
5650;SDS011;40241;52.684;9.758;2023-03-14T13:48:31;6.00;;;1.20;;
5650;SDS011;40241;52.684;9.758;2023-03-14T13:51:10;6.00;;;1.20;;
5650;SDS011;40241;52.684;9.758;2023-03-14T13:53:54;7.43;;;1.23;;
5650;SDS011;40241;52.684;9.758;2023-03-14T13:56:21;3.40;;;0.90;;
5650;SDS011;40241;52.684;9.758;2023-03-14T13:58:48;2.30;;;1.00;;
5650;SDS011;40241;52.684;9.758;2023-03-14T14:01:18;3.13;;;1.10;;
5650;SDS011;40241;52.684;9.758;2023-03-14T14:03:49;5.07;;;1.67;;
5650;SDS011;40241;52.684;9.758;2023-03-14T14:06:19;6.57;;;1.63;;
5650;SDS011;40241;52.684;9.758;2023-03-14T14:08:46;6.60;;;1.70;;
5650;SDS011;40241;52.684;9.758;2023-03-14T14:11:16;9.07;;;1.70;;
5650;SDS011;40241;52.684;9.758;2023-03-14T14:13:46;7.97;;;1.73;;
5650;SDS011;40241;52.684;9.758;2023-03-14T14:16:12;4.63;;;1.20;;
5650;SDS011;40241;52.684;9.758;2023-03-14T14:18:40;7.43;;;1.47;;
5650;SDS011;40241;52.684;9.758;2023-03-14T14:21:06;7.53;;;1.53;;
5650;SDS011;40241;52.684;9.758;2023-03-14T14:23:33;5.00;;;1.57;;
5650;SDS011;40241;52.684;9.758;2023-03-14T14:26:01;3.67;;;1.40;;
5650;SDS011;40241;52.684;9.758;2023-03-14T14:28:31;6.50;;;1.27;;
5650;SDS011;40241;52.684;9.758;2023-03-14T14:33:30;3.53;;;1.23;;
5650;SDS011;40241;52.684;9.758;2023-03-14T14:36:03;4.17;;;1.03;;
5650;SDS011;40241;52.684;9.758;2023-03-14T14:38:29;11.37;;;2.10;;
5650;SDS011;40241;52.684;9.758;2023-03-14T14:40:58;10.40;;;2.80;;
5650;SDS011;40241;52.684;9.758;2023-03-14T14:43:27;7.13;;;2.50;;
5650;SDS011;40241;52.684;9.758;2023-03-14T14:45:55;2.10;;;1.30;;
5650;SDS011;40241;52.684;9.758;2023-03-14T14:48:23;4.77;;;1.40;;
5650;SDS011;40241;52.684;9.758;2023-03-14T14:51:00;4.23;;;1.33;;
5650;SDS011;40241;52.684;9.758;2023-03-14T14:55:56;7.13;;;1.40;;
5650;SDS011;40241;52.684;9.758;2023-03-14T14:58:27;3.27;;;1.40;;
5650;SDS011;40241;52.684;9.758;2023-03-14T15:01:10;3.97;;;1.00;;
5650;SDS011;40241;52.684;9.758;2023-03-14T15:03:41;4.73;;;0.80;;
5650;SDS011;40241;52.684;9.758;2023-03-14T15:06:08;4.33;;;1.30;;
5650;SDS011;40241;52.684;9.758;2023-03-14T15:08:35;3.27;;;1.30;;
5650;SDS011;40241;52.684;9.758;2023-03-14T15:11:02;5.37;;;1.47;;
5650;SDS011;40241;52.684;9.758;2023-03-14T15:13:28;24.13;;;8.70;;
5650;SDS011;40241;52.684;9.758;2023-03-14T15:15:53;13.10;;;5.70;;
5650;SDS011;40241;52.684;9.758;2023-03-14T15:18:20;11.27;;;3.50;;
5650;SDS011;40241;52.684;9.758;2023-03-14T15:20:48;5.43;;;2.00;;
5650;SDS011;40241;52.684;9.758;2023-03-14T15:23:14;5.80;;;1.43;;
5650;SDS011;40241;52.684;9.758;2023-03-14T15:25:41;2.40;;;1.00;;
5650;SDS011;40241;52.684;9.758;2023-03-14T15:30:37;2.43;;;1.10;;
5650;SDS011;40241;52.684;9.758;2023-03-14T15:33:03;3.03;;;0.80;;
5650;SDS011;40241;52.684;9.758;2023-03-14T15:35:28;1.80;;;0.90;;
5650;SDS011;40241;52.684;9.758;2023-03-14T15:37:53;6.30;;;1.80;;
5650;SDS011;40241;52.684;9.758;2023-03-14T15:40:19;2.20;;;1.47;;
5650;SDS011;40241;52.684;9.758;2023-03-14T15:42:48;6.40;;;1.23;;
5650;SDS011;40241;52.684;9.758;2023-03-14T15:45:14;3.60;;;1.27;;
5650;SDS011;40241;52.684;9.758;2023-03-14T15:47:39;5.03;;;2.23;;
5650;SDS011;40241;52.684;9.758;2023-03-14T15:50:04;4.97;;;1.87;;
5650;SDS011;40241;52.684;9.758;2023-03-14T15:52:34;2.80;;;1.40;;
5650;SDS011;40241;52.684;9.758;2023-03-14T15:54:59;1.80;;;1.00;;
5650;SDS011;40241;52.684;9.758;2023-03-14T15:57:25;4.03;;;1.10;;
5650;SDS011;40241;52.684;9.758;2023-03-14T15:59:50;2.20;;;0.80;;
5650;SDS011;40241;52.684;9.758;2023-03-14T16:02:15;1.70;;;0.77;;
5650;SDS011;40241;52.684;9.758;2023-03-14T16:04:41;5.33;;;2.60;;
5650;SDS011;40241;52.684;9.758;2023-03-14T16:07:06;4.20;;;2.83;;
5650;SDS011;40241;52.684;9.758;2023-03-14T16:09:32;4.23;;;2.43;;
5650;SDS011;40241;52.684;9.758;2023-03-14T16:11:57;1.73;;;1.47;;
5650;SDS011;40241;52.684;9.758;2023-03-14T16:14:22;2.43;;;1.20;;
5650;SDS011;40241;52.684;9.758;2023-03-14T16:16:48;1.70;;;1.23;;
5650;SDS011;40241;52.684;9.758;2023-03-14T16:19:13;2.60;;;0.80;;
5650;SDS011;40241;52.684;9.758;2023-03-14T16:21:39;16.00;;;2.87;;
5650;SDS011;40241;52.684;9.758;2023-03-14T16:24:04;3.87;;;2.67;;
5650;SDS011;40241;52.684;9.758;2023-03-14T16:26:31;5.20;;;1.67;;
5650;SDS011;40241;52.684;9.758;2023-03-14T16:28:59;11.93;;;5.07;;
5650;SDS011;40241;52.684;9.758;2023-03-14T16:31:24;10.80;;;4.47;;
5650;SDS011;40241;52.684;9.758;2023-03-14T16:33:50;7.60;;;3.00;;